Sunday, April 22, 2018, 1:58 PM EDT

KMDT, Harrisburg International Airport

Location: Middletown, PA, United States Lat: 40.2
Local Time: 1:58 PM EDT (17:58 GMT) Lon: -76.767
Time Zone: US/Eastern Elev: 308 ft

Show me the last for .
Show Decoded

2018-04-22 12:56 METAR KMDT 221656Z 20003KT 10SM BKN250 16/M02 A3039 RMK AO2 SLP292 T01611017 =
2018-04-22 11:56 METAR KMDT 221556Z 14005KT 10SM BKN250 16/M03 A3041 RMK AO2 SLP300 T01561028 =
2018-04-22 10:56 METAR KMDT 221456Z 15004KT 10SM BKN250 14/M01 A3043 RMK AO2 SLP305 T01391011
                 50000 =
2018-04-22 09:56 METAR KMDT 221356Z 14006KT 10SM BKN250 13/M02 A3043 RMK AO2 SLP306 T01281022 =
2018-04-22 08:56 METAR KMDT 221256Z 00000KT 10SM FEW250 10/M01 A3044 RMK AO2 SLP311 T01001006 =
2018-04-22 07:56 METAR KMDT 221156Z 00000KT 10SM FEW250 08/M02 A3043 RMK AO2 SLP305 T00781017
                 10078 20028 52012 =
2018-04-22 06:56 METAR KMDT 221056Z 34003KT 10SM FEW120 FEW250 03/00 A3042 RMK AO2 SLP303
                 T00330000 =
2018-04-22 05:56 METAR KMDT 220956Z 00000KT 10SM FEW100 SCT250 04/00 A3040 RMK AO2 SLP296
                 T00390000 =
2018-04-22 04:56 METAR KMDT 220856Z 36003KT 10SM BKN250 05/01 A3039 RMK AO2 SLP293 T00500006
                 53005 =
2018-04-22 03:56 METAR KMDT 220756Z 00000KT 10SM FEW200 BKN250 06/01 A3038 RMK AO2 SLP291
                 T00560011 =
2018-04-22 02:56 METAR KMDT 220656Z 00000KT 10SM FEW200 BKN250 06/01 A3037 RMK AO2 SLP287
                 T00610011 =
2018-04-22 01:56 METAR KMDT 220556Z 00000KT 10SM FEW200 BKN250 07/02 A3037 RMK AO2 SLP288
                 T00670022 10117 20050 50007 =
2018-04-22 00:56 METAR KMDT 220456Z 05004KT 10SM FEW200 BKN250 07/02 A3038 RMK AO2 SLP289
                 T00720022 401560000 =
2018-04-21 23:56 METAR KMDT 220356Z 00000KT 10SM FEW200 BKN250 08/03 A3036 RMK AO2 SLP283
                 T00830028 =
2018-04-21 22:56 METAR KMDT 220256Z 08005KT 10SM FEW200 BKN250 11/M01 A3035 RMK AO2 SLP280
                 T01061006 53008 =
2018-04-21 21:56 METAR KMDT 220156Z 11004KT 10SM SCT200 BKN250 08/00 A3034 RMK AO2 SLP276
                 T00830000 =
2018-04-21 20:56 METAR KMDT 220056Z 00000KT 10SM SCT200 BKN250 11/M01 A3034 RMK AO2 SLP275
                 T01111006 =
2018-04-21 19:56 METAR KMDT 212356Z 00000KT 10SM SCT200 BKN250 11/01 A3033 RMK AO2 SLP272
                 T01060006 10156 20106 55000 =
2018-04-21 18:56 METAR KMDT 212256Z 00000KT 10SM FEW150 BKN200 OVC250 14/M02 A3032 RMK AO2 SLP268
                 T01391017 =
2018-04-21 17:56 METAR KMDT 212156Z 28003KT 10SM SCT200 OVC250 15/M03 A3032 RMK AO2 SLP268
                 T01501033 =
2018-04-21 16:56 METAR KMDT 212056Z 31005KT 10SM SCT200 OVC250 15/M03 A3033 RMK AO2 SLP272
                 T01501033 56020 =
2018-04-21 15:56 METAR KMDT 211956Z VRB04KT 10SM FEW200 BKN250 14/M03 A3034 RMK AO2 SLP277
                 T01441028 =
2018-04-21 14:56 METAR KMDT 211856Z 28008KT 10SM BKN250 14/M03 A3036 RMK AO2 SLP284 T01391033 =

Support USWX by starting your Amazon purchase here.